Traverse City, MI (49684)

5:48 PM EDT on July 06, 2015 (GMT -0400)
Hills of Westbrook | | Change Station
CLOSE
Current Station
Personal Weather Station
Location: Traverse City, MI
Elevation: 1043 ft
Nearby Weather Stations

Elev 1043 ft 44.76 °N, 85.69 °W | Updated 29 seconds ago

Overcast
Overcast
79.7 °F
Feels Like 82 °F
N
6.7
Wind Variable Wind from South
Gusts 7.4 mph

Today
High -- | Low -- °F
--% Chance of Precip.
Yesterday
High -- | Low -- °F
Precip. -- in
6:03 AM 9:30 PM
Waning Gibbous, 72% visible
Pressure 29.83 in
Visibility 6.0 miles
Clouds Few 4500 ft
Mostly Cloudy 25000 ft
Heat Index 82 °F
Dew Point 67 °F
Humidity 65%
Rainfall 0.00 in
Snow Depth Not available.
UV 4 out of 12
Pollen 5.00 out of 12
Air Quality Not available.
Flu Activity Not available.
METAR KTVC 062053Z 21011G18KT 180V240 6SM HZ FEW045 BKN250 30/17 A2983 RMK AO2 SLP099 T03000172 56020

More Conditions Fewer Conditions

Pressure 29.83 in
Visibility 6.0 miles
Clouds Few 4500 ft
Mostly Cloudy 25000 ft
Heat Index 82 °F
Dew Point 67 °F
Humidity 65%
Rainfall 0.00 in
Snow Depth Not available.
UV 4 out of 12
Pollen 5.00 out of 12
Air Quality Not available.
Flu Activity Not available.
METAR KTVC 062053Z 21011G18KT 180V240 6SM HZ FEW045 BKN250 30/17 A2983 RMK AO2 SLP099 T03000172 56020

More Conditions Fewer Conditions

Nowcast | as of 5:00 PM EDT on July 6, 2015

At 6 PM...partly cloudy. Temperature 83. South winds 13 mph. At 8 PM...numerous showers. Temperature 80. South winds 13 mph. At 10 PM...numerous showers. Temperature 76. Southwest winds 9 mph. At 12 am...periods of thunderstorms. Temperature 73. Southwest winds 8 mph.

×

10-Day Weather Forecast

×

Almanac

Astronomy

Jul. 06, 2015 Rise Set
Actual Time
Civil Twilight
Nautical Twilight
Astronomical Twilight
Moon
Length of Visible Light
Length of Day
Tomorrow will be .
, % of the Moon is Illuminated

Today's Extremes

State Highs State Lows

Community

WunderPhotos

Upload Photos

1,835,663 photos uploaded!

WunderBlogs® & News

Nearby

Air Quality

  Air Quality AQ Index Pollutant
Not available.

Snow Depth

Station Depth Elevation

Earthquake Activity

City Distance Mag. Time & Date
Minimum magnitude displayed is 2.5.

Coastal Water Temperatures

Place Temperature

Stations

Nearby Weather Stations

Station Location Temp. Windchill Dew Point Humidity Wind Precip. Elev Updated Type